Bigand, Argentina
Current Conditions -  °F | °C
As of 1:00 AM on Friday 31 Oct 2014 (Local Time) from SAAR Reporting Station
Clear Clear  
Wind Chill: 20°   Ceiling: Unl
Heat Index: 20°   Visibility: 6mi
Dew Point: 15°   Wind: 8mph
Humidity: 73%   Direction: 70°ENE
Pressure: 29.83"   Gusts: NA
Location:  33.38°S, 61.18°W
Report Text: SAAR 310400Z 07007KT CAVOK 20/15 Q1010
Loading
Personal Weather Stations






























Interactive Weather Map
Tropical Storm Tracking
New forecast layout! Learn more

10-Day Weather Forecast

Advertisements
Track Severe Weather on mobile